sensor_id;sensor_type;location;lat;lon;timestamp;temperature;humidity
10171;DHT22;5127;50.922;6.988;2023-01-20T00:00:16;4.60;71.40
10171;DHT22;5127;50.922;6.988;2023-01-20T00:02:44;4.60;71.40
10171;DHT22;5127;50.922;6.988;2023-01-20T00:05:11;4.60;71.40
10171;DHT22;5127;50.922;6.988;2023-01-20T00:07:38;4.60;71.20
10171;DHT22;5127;50.922;6.988;2023-01-20T00:10:07;4.60;71.80
10171;DHT22;5127;50.922;6.988;2023-01-20T00:12:37;4.60;71.10
10171;DHT22;5127;50.922;6.988;2023-01-20T00:15:06;4.60;71.00
10171;DHT22;5127;50.922;6.988;2023-01-20T00:17:34;4.50;70.90
10171;DHT22;5127;50.922;6.988;2023-01-20T00:20:02;4.50;71.00
10171;DHT22;5127;50.922;6.988;2023-01-20T00:22:30;4.40;70.90
10171;DHT22;5127;50.922;6.988;2023-01-20T00:24:57;4.40;71.00
10171;DHT22;5127;50.922;6.988;2023-01-20T00:27:24;4.40;71.10
10171;DHT22;5127;50.922;6.988;2023-01-20T00:29:53;4.40;71.20
10171;DHT22;5127;50.922;6.988;2023-01-20T00:32:21;4.40;71.30
10171;DHT22;5127;50.922;6.988;2023-01-20T00:34:48;4.40;71.50
10171;DHT22;5127;50.922;6.988;2023-01-20T00:37:15;4.40;71.60
10171;DHT22;5127;50.922;6.988;2023-01-20T00:39:42;4.40;71.70
10171;DHT22;5127;50.922;6.988;2023-01-20T00:42:10;4.40;71.80
10171;DHT22;5127;50.922;6.988;2023-01-20T00:44:37;4.40;71.90
10171;DHT22;5127;50.922;6.988;2023-01-20T00:47:06;4.40;71.90
10171;DHT22;5127;50.922;6.988;2023-01-20T00:49:33;4.40;71.80
10171;DHT22;5127;50.922;6.988;2023-01-20T00:52:00;4.50;71.90
10171;DHT22;5127;50.922;6.988;2023-01-20T00:54:27;4.50;72.00
10171;DHT22;5127;50.922;6.988;2023-01-20T00:56:55;4.50;72.00
10171;DHT22;5127;50.922;6.988;2023-01-20T00:59:22;4.50;71.90
10171;DHT22;5127;50.922;6.988;2023-01-20T01:01:49;4.50;71.90
10171;DHT22;5127;50.922;6.988;2023-01-20T01:04:18;4.50;71.80
10171;DHT22;5127;50.922;6.988;2023-01-20T01:06:45;4.50;71.60
10171;DHT22;5127;50.922;6.988;2023-01-20T01:09:12;4.50;71.50
10171;DHT22;5127;50.922;6.988;2023-01-20T01:11:40;4.50;71.40
10171;DHT22;5127;50.922;6.988;2023-01-20T01:14:07;4.50;71.40
10171;DHT22;5127;50.922;6.988;2023-01-20T01:16:34;4.50;71.40
10171;DHT22;5127;50.922;6.988;2023-01-20T01:19:02;4.50;71.30
10171;DHT22;5127;50.922;6.988;2023-01-20T01:21:30;4.50;71.30
10171;DHT22;5127;50.922;6.988;2023-01-20T01:23:58;4.40;71.10
10171;DHT22;5127;50.922;6.988;2023-01-20T01:26:25;4.40;71.00
10171;DHT22;5127;50.922;6.988;2023-01-20T01:28:52;4.40;71.00
10171;DHT22;5127;50.922;6.988;2023-01-20T01:31:19;4.30;71.00
10171;DHT22;5127;50.922;6.988;2023-01-20T01:33:47;4.30;71.10
10171;DHT22;5127;50.922;6.988;2023-01-20T01:36:15;4.30;71.20
10171;DHT22;5127;50.922;6.988;2023-01-20T01:38:44;4.30;71.10
10171;DHT22;5127;50.922;6.988;2023-01-20T01:41:13;4.30;71.00
10171;DHT22;5127;50.922;6.988;2023-01-20T01:43:59;4.20;70.80
10171;DHT22;5127;50.922;6.988;2023-01-20T01:46:27;4.20;70.40
10171;DHT22;5127;50.922;6.988;2023-01-20T01:48:56;4.20;70.60
10171;DHT22;5127;50.922;6.988;2023-01-20T01:51:28;4.10;70.50
10171;DHT22;5127;50.922;6.988;2023-01-20T01:54:03;4.10;70.40
10171;DHT22;5127;50.922;6.988;2023-01-20T01:56:32;4.00;70.30
10171;DHT22;5127;50.922;6.988;2023-01-20T01:59:01;4.00;70.40
10171;DHT22;5127;50.922;6.988;2023-01-20T02:01:34;4.00;70.40
10171;DHT22;5127;50.922;6.988;2023-01-20T02:04:06;3.90;70.30
10171;DHT22;5127;50.922;6.988;2023-01-20T02:06:39;3.90;70.30
10171;DHT22;5127;50.922;6.988;2023-01-20T02:09:08;3.80;70.20
10171;DHT22;5127;50.922;6.988;2023-01-20T02:11:37;3.80;70.20
10171;DHT22;5127;50.922;6.988;2023-01-20T02:14:06;3.80;70.30
10171;DHT22;5127;50.922;6.988;2023-01-20T02:16:43;3.70;70.20
10171;DHT22;5127;50.922;6.988;2023-01-20T02:19:32;3.70;70.10
10171;DHT22;5127;50.922;6.988;2023-01-20T02:22:13;3.70;70.00
10171;DHT22;5127;50.922;6.988;2023-01-20T02:25:18;3.60;69.90
10171;DHT22;5127;50.922;6.988;2023-01-20T02:28:15;3.60;69.80
10171;DHT22;5127;50.922;6.988;2023-01-20T02:31:13;3.50;69.90
10171;DHT22;5127;50.922;6.988;2023-01-20T02:33:47;3.50;69.80
10171;DHT22;5127;50.922;6.988;2023-01-20T02:36:26;3.40;70.10
10171;DHT22;5127;50.922;6.988;2023-01-20T02:38:58;3.40;70.10
10171;DHT22;5127;50.922;6.988;2023-01-20T02:41:35;3.40;70.20
10171;DHT22;5127;50.922;6.988;2023-01-20T02:44:11;3.40;70.10
10171;DHT22;5127;50.922;6.988;2023-01-20T02:46:48;3.30;70.10
10171;DHT22;5127;50.922;6.988;2023-01-20T02:49:22;3.30;70.00
10171;DHT22;5127;50.922;6.988;2023-01-20T02:51:55;3.30;70.80
10171;DHT22;5127;50.922;6.988;2023-01-20T02:54:26;3.20;70.10
10171;DHT22;5127;50.922;6.988;2023-01-20T02:56:56;3.20;70.20
10171;DHT22;5127;50.922;6.988;2023-01-20T02:59:26;3.20;70.30
10171;DHT22;5127;50.922;6.988;2023-01-20T03:01:58;3.10;70.20
10171;DHT22;5127;50.922;6.988;2023-01-20T03:04:30;3.20;70.40
10171;DHT22;5127;50.922;6.988;2023-01-20T03:06:59;3.10;70.40
10171;DHT22;5127;50.922;6.988;2023-01-20T03:09:33;3.10;70.40
10171;DHT22;5127;50.922;6.988;2023-01-20T03:12:08;3.10;70.60
10171;DHT22;5127;50.922;6.988;2023-01-20T03:14:37;3.10;70.70
10171;DHT22;5127;50.922;6.988;2023-01-20T03:17:04;3.10;70.80
10171;DHT22;5127;50.922;6.988;2023-01-20T03:19:33;3.10;70.90
10171;DHT22;5127;50.922;6.988;2023-01-20T03:22:01;3.10;70.80
10171;DHT22;5127;50.922;6.988;2023-01-20T03:24:29;3.00;70.80
10171;DHT22;5127;50.922;6.988;2023-01-20T03:26:59;3.10;70.90
10171;DHT22;5127;50.922;6.988;2023-01-20T03:29:26;3.10;70.90
10171;DHT22;5127;50.922;6.988;2023-01-20T03:31:57;3.10;70.90
10171;DHT22;5127;50.922;6.988;2023-01-20T03:34:27;3.10;70.80
10171;DHT22;5127;50.922;6.988;2023-01-20T03:36:57;3.10;70.80
10171;DHT22;5127;50.922;6.988;2023-01-20T03:39:26;3.10;70.90
10171;DHT22;5127;50.922;6.988;2023-01-20T03:42:00;3.10;71.00
10171;DHT22;5127;50.922;6.988;2023-01-20T03:44:44;3.10;71.10
10171;DHT22;5127;50.922;6.988;2023-01-20T03:47:19;3.10;71.00
10171;DHT22;5127;50.922;6.988;2023-01-20T03:49:53;3.20;71.20
10171;DHT22;5127;50.922;6.988;2023-01-20T03:52:29;3.20;71.90
10171;DHT22;5127;50.922;6.988;2023-01-20T03:55:18;3.20;71.10
10171;DHT22;5127;50.922;6.988;2023-01-20T03:57:50;3.10;71.00
10171;DHT22;5127;50.922;6.988;2023-01-20T04:00:20;3.20;71.10
10171;DHT22;5127;50.922;6.988;2023-01-20T04:02:49;3.20;71.20
10171;DHT22;5127;50.922;6.988;2023-01-20T04:05:16;3.20;71.20
10171;DHT22;5127;50.922;6.988;2023-01-20T04:07:46;3.20;71.20
10171;DHT22;5127;50.922;6.988;2023-01-20T04:10:15;3.20;71.30
10171;DHT22;5127;50.922;6.988;2023-01-20T04:12:43;3.20;71.40
10171;DHT22;5127;50.922;6.988;2023-01-20T04:15:11;3.20;71.90
10171;DHT22;5127;50.922;6.988;2023-01-20T04:17:38;3.20;71.60
10171;DHT22;5127;50.922;6.988;2023-01-20T04:20:08;3.20;71.60
10171;DHT22;5127;50.922;6.988;2023-01-20T04:22:43;3.20;71.70
10171;DHT22;5127;50.922;6.988;2023-01-20T04:25:20;3.30;72.40
10171;DHT22;5127;50.922;6.988;2023-01-20T04:27:48;3.30;71.80
10171;DHT22;5127;50.922;6.988;2023-01-20T04:30:16;3.30;71.80
10171;DHT22;5127;50.922;6.988;2023-01-20T04:32:43;3.40;71.90
10171;DHT22;5127;50.922;6.988;2023-01-20T04:35:12;3.40;71.90
10171;DHT22;5127;50.922;6.988;2023-01-20T04:37:40;3.40;71.90
10171;DHT22;5127;50.922;6.988;2023-01-20T04:40:08;3.50;72.10
10171;DHT22;5127;50.922;6.988;2023-01-20T04:42:37;3.50;72.20
10171;DHT22;5127;50.922;6.988;2023-01-20T04:45:06;3.50;72.20
10171;DHT22;5127;50.922;6.988;2023-01-20T04:47:33;3.50;72.30
10171;DHT22;5127;50.922;6.988;2023-01-20T04:50:00;3.60;72.40
10171;DHT22;5127;50.922;6.988;2023-01-20T04:52:27;3.60;72.40
10171;DHT22;5127;50.922;6.988;2023-01-20T04:54:55;3.70;72.60
10171;DHT22;5127;50.922;6.988;2023-01-20T04:57:22;3.70;72.70
10171;DHT22;5127;50.922;6.988;2023-01-20T04:59:51;3.80;72.90
10171;DHT22;5127;50.922;6.988;2023-01-20T05:02:18;3.90;72.90
10171;DHT22;5127;50.922;6.988;2023-01-20T05:04:45;3.90;72.90
10171;DHT22;5127;50.922;6.988;2023-01-20T05:07:13;4.00;73.00
10171;DHT22;5127;50.922;6.988;2023-01-20T05:09:40;4.00;73.00
10171;DHT22;5127;50.922;6.988;2023-01-20T05:12:08;4.10;73.00
10171;DHT22;5127;50.922;6.988;2023-01-20T05:14:35;4.10;73.00
10171;DHT22;5127;50.922;6.988;2023-01-20T05:17:04;4.20;73.10
10171;DHT22;5127;50.922;6.988;2023-01-20T05:19:31;4.20;73.00
10171;DHT22;5127;50.922;6.988;2023-01-20T05:21:58;4.20;72.90
10171;DHT22;5127;50.922;6.988;2023-01-20T05:24:25;4.30;73.00
10171;DHT22;5127;50.922;6.988;2023-01-20T05:26:53;4.30;73.00
10171;DHT22;5127;50.922;6.988;2023-01-20T05:29:20;4.40;73.00
10171;DHT22;5127;50.922;6.988;2023-01-20T05:31:47;4.40;73.00
10171;DHT22;5127;50.922;6.988;2023-01-20T05:34:16;4.40;72.90
10171;DHT22;5127;50.922;6.988;2023-01-20T05:36:43;4.50;72.90
10171;DHT22;5127;50.922;6.988;2023-01-20T05:39:10;4.50;72.90
10171;DHT22;5127;50.922;6.988;2023-01-20T05:41:37;4.50;72.90
10171;DHT22;5127;50.922;6.988;2023-01-20T05:44:05;4.50;72.80
10171;DHT22;5127;50.922;6.988;2023-01-20T05:46:32;4.60;72.90
10171;DHT22;5127;50.922;6.988;2023-01-20T05:48:59;4.60;72.80
10171;DHT22;5127;50.922;6.988;2023-01-20T05:51:29;4.60;72.70
10171;DHT22;5127;50.922;6.988;2023-01-20T05:53:57;4.70;72.80
10171;DHT22;5127;50.922;6.988;2023-01-20T05:56:24;4.70;72.70
10171;DHT22;5127;50.922;6.988;2023-01-20T05:58:53;4.70;72.70
10171;DHT22;5127;50.922;6.988;2023-01-20T06:01:20;4.70;72.40
10171;DHT22;5127;50.922;6.988;2023-01-20T06:03:48;4.70;72.40
10171;DHT22;5127;50.922;6.988;2023-01-20T06:06:15;4.70;72.40
10171;DHT22;5127;50.922;6.988;2023-01-20T06:08:44;4.70;72.30
10171;DHT22;5127;50.922;6.988;2023-01-20T06:11:12;4.70;72.30
10171;DHT22;5127;50.922;6.988;2023-01-20T06:13:40;4.70;72.30
10171;DHT22;5127;50.922;6.988;2023-01-20T06:16:08;4.70;72.30
10171;DHT22;5127;50.922;6.988;2023-01-20T06:18:35;4.70;72.20
10171;DHT22;5127;50.922;6.988;2023-01-20T06:21:02;4.70;72.20
10171;DHT22;5127;50.922;6.988;2023-01-20T06:23:30;4.70;72.10
10171;DHT22;5127;50.922;6.988;2023-01-20T06:26:00;4.70;72.20
10171;DHT22;5127;50.922;6.988;2023-01-20T06:28:27;4.70;72.00
10171;DHT22;5127;50.922;6.988;2023-01-20T06:30:59;4.70;72.30
10171;DHT22;5127;50.922;6.988;2023-01-20T06:33:26;4.70;72.10
10171;DHT22;5127;50.922;6.988;2023-01-20T06:35:54;4.70;72.10
10171;DHT22;5127;50.922;6.988;2023-01-20T06:38:29;4.80;72.20
10171;DHT22;5127;50.922;6.988;2023-01-20T06:40:59;4.70;71.80
10171;DHT22;5127;50.922;6.988;2023-01-20T06:43:27;4.70;72.00
10171;DHT22;5127;50.922;6.988;2023-01-20T06:45:58;4.70;72.70
10171;DHT22;5127;50.922;6.988;2023-01-20T06:48:26;4.70;71.90
10171;DHT22;5127;50.922;6.988;2023-01-20T06:50:58;4.70;72.00
10171;DHT22;5127;50.922;6.988;2023-01-20T06:53:26;4.80;72.20
10171;DHT22;5127;50.922;6.988;2023-01-20T06:55:54;4.80;72.10
10171;DHT22;5127;50.922;6.988;2023-01-20T06:58:24;4.80;72.00
10171;DHT22;5127;50.922;6.988;2023-01-20T07:00:52;4.80;72.00
10171;DHT22;5127;50.922;6.988;2023-01-20T07:03:19;4.80;72.00
10171;DHT22;5127;50.922;6.988;2023-01-20T07:05:53;4.80;72.00
10171;DHT22;5127;50.922;6.988;2023-01-20T07:08:22;4.80;71.80
10171;DHT22;5127;50.922;6.988;2023-01-20T07:10:49;4.80;72.00
10171;DHT22;5127;50.922;6.988;2023-01-20T07:13:17;4.80;72.00
10171;DHT22;5127;50.922;6.988;2023-01-20T07:15:45;4.80;72.00
10171;DHT22;5127;50.922;6.988;2023-01-20T07:18:13;4.90;72.00
10171;DHT22;5127;50.922;6.988;2023-01-20T07:20:40;4.80;71.90
10171;DHT22;5127;50.922;6.988;2023-01-20T07:23:08;4.80;71.90
10171;DHT22;5127;50.922;6.988;2023-01-20T07:25:35;4.80;71.90
10171;DHT22;5127;50.922;6.988;2023-01-20T07:28:04;4.80;71.90
10171;DHT22;5127;50.922;6.988;2023-01-20T07:30:31;4.80;71.80
10171;DHT22;5127;50.922;6.988;2023-01-20T07:33:00;4.80;71.80
10171;DHT22;5127;50.922;6.988;2023-01-20T07:35:27;4.80;71.70
10171;DHT22;5127;50.922;6.988;2023-01-20T07:37:55;4.80;71.70
10171;DHT22;5127;50.922;6.988;2023-01-20T07:40:22;4.80;71.70
10171;DHT22;5127;50.922;6.988;2023-01-20T07:42:49;4.80;71.70
10171;DHT22;5127;50.922;6.988;2023-01-20T07:45:17;4.80;71.70
10171;DHT22;5127;50.922;6.988;2023-01-20T07:47:45;4.80;71.70
10171;DHT22;5127;50.922;6.988;2023-01-20T07:50:15;4.80;71.60
10171;DHT22;5127;50.922;6.988;2023-01-20T07:52:42;4.80;71.60
10171;DHT22;5127;50.922;6.988;2023-01-20T07:55:09;4.80;71.70
10171;DHT22;5127;50.922;6.988;2023-01-20T07:57:37;4.80;71.80
10171;DHT22;5127;50.922;6.988;2023-01-20T08:00:05;4.80;71.80
10171;DHT22;5127;50.922;6.988;2023-01-20T08:02:36;4.90;71.80
10171;DHT22;5127;50.922;6.988;2023-01-20T08:05:03;4.90;71.60
10171;DHT22;5127;50.922;6.988;2023-01-20T08:07:32;4.90;71.70
10171;DHT22;5127;50.922;6.988;2023-01-20T08:09:59;4.90;71.80
10171;DHT22;5127;50.922;6.988;2023-01-20T08:12:27;4.90;71.90
10171;DHT22;5127;50.922;6.988;2023-01-20T08:14:54;4.90;71.90
10171;DHT22;5127;50.922;6.988;2023-01-20T08:17:21;4.90;71.80
10171;DHT22;5127;50.922;6.988;2023-01-20T08:19:49;5.00;71.80
10171;DHT22;5127;50.922;6.988;2023-01-20T08:22:19;5.00;71.70
10171;DHT22;5127;50.922;6.988;2023-01-20T08:24:47;5.00;71.60
10171;DHT22;5127;50.922;6.988;2023-01-20T08:27:14;5.00;71.60
10171;DHT22;5127;50.922;6.988;2023-01-20T08:29:42;5.00;71.70
10171;DHT22;5127;50.922;6.988;2023-01-20T08:32:10;5.00;71.60
10171;DHT22;5127;50.922;6.988;2023-01-20T08:34:37;5.00;71.40
10171;DHT22;5127;50.922;6.988;2023-01-20T08:37:04;5.00;71.40
10171;DHT22;5127;50.922;6.988;2023-01-20T08:39:32;5.00;71.30
10171;DHT22;5127;50.922;6.988;2023-01-20T08:42:01;5.00;71.30
10171;DHT22;5127;50.922;6.988;2023-01-20T08:44:28;4.90;71.10
10171;DHT22;5127;50.922;6.988;2023-01-20T08:46:56;5.00;71.10
10171;DHT22;5127;50.922;6.988;2023-01-20T08:49:24;4.90;70.90
10171;DHT22;5127;50.922;6.988;2023-01-20T08:51:51;4.90;70.80
10171;DHT22;5127;50.922;6.988;2023-01-20T08:54:20;4.80;70.60
10171;DHT22;5127;50.922;6.988;2023-01-20T08:56:49;4.80;70.70
10171;DHT22;5127;50.922;6.988;2023-01-20T08:59:18;4.80;70.70
10171;DHT22;5127;50.922;6.988;2023-01-20T09:01:46;4.80;70.60
10171;DHT22;5127;50.922;6.988;2023-01-20T09:04:13;4.70;70.80
10171;DHT22;5127;50.922;6.988;2023-01-20T09:06:42;4.70;71.60
10171;DHT22;5127;50.922;6.988;2023-01-20T09:09:10;4.70;71.10
10171;DHT22;5127;50.922;6.988;2023-01-20T09:11:38;4.70;71.20
10171;DHT22;5127;50.922;6.988;2023-01-20T09:14:05;4.80;71.30
10171;DHT22;5127;50.922;6.988;2023-01-20T09:16:34;4.80;71.40
10171;DHT22;5127;50.922;6.988;2023-01-20T09:19:01;4.80;72.10
10171;DHT22;5127;50.922;6.988;2023-01-20T09:21:29;4.80;71.80
10171;DHT22;5127;50.922;6.988;2023-01-20T09:23:56;4.90;71.70
10171;DHT22;5127;50.922;6.988;2023-01-20T09:26:23;4.90;71.80
10171;DHT22;5127;50.922;6.988;2023-01-20T09:28:51;4.90;71.80
10171;DHT22;5127;50.922;6.988;2023-01-20T09:31:18;5.00;71.90
10171;DHT22;5127;50.922;6.988;2023-01-20T09:33:47;5.00;71.70
10171;DHT22;5127;50.922;6.988;2023-01-20T09:36:15;5.10;71.60
10171;DHT22;5127;50.922;6.988;2023-01-20T09:38:42;5.10;71.70
10171;DHT22;5127;50.922;6.988;2023-01-20T09:41:46;5.10;72.40
10171;DHT22;5127;50.922;6.988;2023-01-20T09:44:46;5.20;71.60
10171;DHT22;5127;50.922;6.988;2023-01-20T09:47:21;5.30;71.40
10171;DHT22;5127;50.922;6.988;2023-01-20T09:50:12;5.30;71.70
10171;DHT22;5127;50.922;6.988;2023-01-20T09:53:05;5.40;71.60
10171;DHT22;5127;50.922;6.988;2023-01-20T09:55:39;5.50;72.30
10171;DHT22;5127;50.922;6.988;2023-01-20T09:58:18;5.60;72.30
10171;DHT22;5127;50.922;6.988;2023-01-20T10:00:50;5.70;72.30
10171;DHT22;5127;50.922;6.988;2023-01-20T10:03:23;5.70;72.50
10171;DHT22;5127;50.922;6.988;2023-01-20T10:05:57;5.80;72.50
10171;DHT22;5127;50.922;6.988;2023-01-20T10:08:31;5.90;72.40
10171;DHT22;5127;50.922;6.988;2023-01-20T10:11:05;6.00;72.30
10171;DHT22;5127;50.922;6.988;2023-01-20T10:13:38;6.10;72.10
10171;DHT22;5127;50.922;6.988;2023-01-20T10:16:25;6.10;72.00
10171;DHT22;5127;50.922;6.988;2023-01-20T10:18:58;6.20;71.30
10171;DHT22;5127;50.922;6.988;2023-01-20T10:21:31;6.30;71.70
10171;DHT22;5127;50.922;6.988;2023-01-20T10:24:05;6.30;71.40
10171;DHT22;5127;50.922;6.988;2023-01-20T10:26:41;6.30;71.40
10171;DHT22;5127;50.922;6.988;2023-01-20T10:29:16;6.30;71.20
10171;DHT22;5127;50.922;6.988;2023-01-20T10:31:50;6.40;71.70
10171;DHT22;5127;50.922;6.988;2023-01-20T10:34:19;6.40;71.40
10171;DHT22;5127;50.922;6.988;2023-01-20T10:36:54;6.50;71.60
10171;DHT22;5127;50.922;6.988;2023-01-20T10:39:28;6.50;71.10
10171;DHT22;5127;50.922;6.988;2023-01-20T10:42:02;6.60;71.10
10171;DHT22;5127;50.922;6.988;2023-01-20T10:44:33;6.60;71.00
10171;DHT22;5127;50.922;6.988;2023-01-20T10:47:15;6.60;71.20
10171;DHT22;5127;50.922;6.988;2023-01-20T10:50:01;6.70;70.30
10171;DHT22;5127;50.922;6.988;2023-01-20T10:52:50;6.70;70.20
10171;DHT22;5127;50.922;6.988;2023-01-20T10:55:29;6.70;70.00
10171;DHT22;5127;50.922;6.988;2023-01-20T10:58:03;6.80;70.80
10171;DHT22;5127;50.922;6.988;2023-01-20T11:00:34;6.70;71.60
10171;DHT22;5127;50.922;6.988;2023-01-20T11:03:03;6.80;70.80
10171;DHT22;5127;50.922;6.988;2023-01-20T11:05:34;6.80;70.30
10171;DHT22;5127;50.922;6.988;2023-01-20T11:08:13;6.80;70.30
10171;DHT22;5127;50.922;6.988;2023-01-20T11:10:41;6.80;70.00
10171;DHT22;5127;50.922;6.988;2023-01-20T11:13:10;6.80;70.70
10171;DHT22;5127;50.922;6.988;2023-01-20T11:15:41;6.90;70.60
10171;DHT22;5127;50.922;6.988;2023-01-20T11:18:25;6.70;70.20
10171;DHT22;5127;50.922;6.988;2023-01-20T11:20:56;6.70;69.30
10171;DHT22;5127;50.922;6.988;2023-01-20T11:23:35;6.70;70.30
10171;DHT22;5127;50.922;6.988;2023-01-20T11:26:04;6.70;69.40
10171;DHT22;5127;50.922;6.988;2023-01-20T11:28:44;6.70;70.20
10171;DHT22;5127;50.922;6.988;2023-01-20T11:31:13;6.70;69.20
10171;DHT22;5127;50.922;6.988;2023-01-20T11:33:53;6.70;70.20
10171;DHT22;5127;50.922;6.988;2023-01-20T11:36:21;6.70;69.30
10171;DHT22;5127;50.922;6.988;2023-01-20T11:38:53;6.60;70.40
10171;DHT22;5127;50.922;6.988;2023-01-20T11:41:21;6.60;70.20
10171;DHT22;5127;50.922;6.988;2023-01-20T11:43:50;6.70;70.30
10171;DHT22;5127;50.922;6.988;2023-01-20T11:46:22;6.70;70.60
10171;DHT22;5127;50.922;6.988;2023-01-20T11:49:10;6.60;69.80
10171;DHT22;5127;50.922;6.988;2023-01-20T11:51:44;6.60;69.40
10171;DHT22;5127;50.922;6.988;2023-01-20T11:54:16;6.60;70.20
10171;DHT22;5127;50.922;6.988;2023-01-20T11:56:46;6.70;70.30
10171;DHT22;5127;50.922;6.988;2023-01-20T11:59:21;6.70;70.60
10171;DHT22;5127;50.922;6.988;2023-01-20T12:01:54;6.70;70.30
10171;DHT22;5127;50.922;6.988;2023-01-20T12:04:40;6.70;70.60
10171;DHT22;5127;50.922;6.988;2023-01-20T12:07:12;6.70;69.50
10171;DHT22;5127;50.922;6.988;2023-01-20T12:09:43;6.70;70.60
10171;DHT22;5127;50.922;6.988;2023-01-20T12:12:17;6.70;70.30
10171;DHT22;5127;50.922;6.988;2023-01-20T12:14:50;6.70;69.90
10171;DHT22;5127;50.922;6.988;2023-01-20T12:17:32;6.70;69.90
10171;DHT22;5127;50.922;6.988;2023-01-20T12:20:08;6.70;69.90
10171;DHT22;5127;50.922;6.988;2023-01-20T12:22:43;6.70;70.00
10171;DHT22;5127;50.922;6.988;2023-01-20T12:25:17;6.70;69.70
10171;DHT22;5127;50.922;6.988;2023-01-20T12:27:49;6.70;69.80
10171;DHT22;5127;50.922;6.988;2023-01-20T12:30:39;6.70;70.10
10171;DHT22;5127;50.922;6.988;2023-01-20T12:33:20;6.70;69.00
10171;DHT22;5127;50.922;6.988;2023-01-20T12:36:19;6.70;69.30
10171;DHT22;5127;50.922;6.988;2023-01-20T12:39:10;6.70;69.00
10171;DHT22;5127;50.922;6.988;2023-01-20T12:44:32;6.60;69.50
10171;DHT22;5127;50.922;6.988;2023-01-20T12:47:10;6.60;70.20
10171;DHT22;5127;50.922;6.988;2023-01-20T12:49:52;6.60;70.00
10171;DHT22;5127;50.922;6.988;2023-01-20T12:52:39;6.60;70.10
10171;DHT22;5127;50.922;6.988;2023-01-20T12:55:17;6.50;69.80
10171;DHT22;5127;50.922;6.988;2023-01-20T12:57:59;6.50;70.10
10171;DHT22;5127;50.922;6.988;2023-01-20T13:00:39;6.50;70.20
10171;DHT22;5127;50.922;6.988;2023-01-20T13:06:23;6.40;70.40
10171;DHT22;5127;50.922;6.988;2023-01-20T13:08:58;6.40;71.30
10171;DHT22;5127;50.922;6.988;2023-01-20T13:11:41;6.40;71.60
10171;DHT22;5127;50.922;6.988;2023-01-20T13:14:15;6.40;70.50
10171;DHT22;5127;50.922;6.988;2023-01-20T13:16:47;6.40;70.90
10171;DHT22;5127;50.922;6.988;2023-01-20T13:19:23;6.40;71.00
10171;DHT22;5127;50.922;6.988;2023-01-20T13:21:53;6.40;71.00
10171;DHT22;5127;50.922;6.988;2023-01-20T13:24:21;6.40;71.10
10171;DHT22;5127;50.922;6.988;2023-01-20T13:26:54;6.40;71.10
10171;DHT22;5127;50.922;6.988;2023-01-20T13:29:41;6.30;70.80
10171;DHT22;5127;50.922;6.988;2023-01-20T13:32:26;6.30;70.10
10171;DHT22;5127;50.922;6.988;2023-01-20T13:34:54;6.30;70.00
10171;DHT22;5127;50.922;6.988;2023-01-20T13:37:27;6.20;70.60
10171;DHT22;5127;50.922;6.988;2023-01-20T13:39:55;6.20;70.40
10171;DHT22;5127;50.922;6.988;2023-01-20T13:42:46;6.10;70.50
10171;DHT22;5127;50.922;6.988;2023-01-20T13:45:23;6.10;70.00
10171;DHT22;5127;50.922;6.988;2023-01-20T13:48:00;6.00;70.30
10171;DHT22;5127;50.922;6.988;2023-01-20T13:50:30;6.00;70.30
10171;DHT22;5127;50.922;6.988;2023-01-20T13:53:11;6.00;70.60
10171;DHT22;5127;50.922;6.988;2023-01-20T13:55:50;5.90;70.40
10171;DHT22;5127;50.922;6.988;2023-01-20T13:58:19;5.80;70.10
10171;DHT22;5127;50.922;6.988;2023-01-20T14:00:52;5.80;70.60
10171;DHT22;5127;50.922;6.988;2023-01-20T14:03:22;5.80;70.50
10171;DHT22;5127;50.922;6.988;2023-01-20T14:05:51;5.70;70.70
10171;DHT22;5127;50.922;6.988;2023-01-20T14:08:20;5.70;70.90
10171;DHT22;5127;50.922;6.988;2023-01-20T14:10:48;5.60;70.90
10171;DHT22;5127;50.922;6.988;2023-01-20T14:13:21;5.60;71.10
10171;DHT22;5127;50.922;6.988;2023-01-20T14:15:52;5.60;71.00
10171;DHT22;5127;50.922;6.988;2023-01-20T14:18:22;5.70;71.20
10171;DHT22;5127;50.922;6.988;2023-01-20T14:21:00;5.50;71.10
10171;DHT22;5127;50.922;6.988;2023-01-20T14:23:31;5.50;70.90
10171;DHT22;5127;50.922;6.988;2023-01-20T14:26:01;5.50;71.20
10171;DHT22;5127;50.922;6.988;2023-01-20T14:28:30;5.50;71.20
10171;DHT22;5127;50.922;6.988;2023-01-20T14:31:11;5.40;71.30
10171;DHT22;5127;50.922;6.988;2023-01-20T14:33:43;5.40;71.10
10171;DHT22;5127;50.922;6.988;2023-01-20T14:36:14;5.40;71.40
10171;DHT22;5127;50.922;6.988;2023-01-20T14:38:44;5.30;71.30
10171;DHT22;5127;50.922;6.988;2023-01-20T14:41:26;5.30;71.50
10171;DHT22;5127;50.922;6.988;2023-01-20T14:43:54;5.30;71.20
10171;DHT22;5127;50.922;6.988;2023-01-20T14:46:25;5.30;71.40
10171;DHT22;5127;50.922;6.988;2023-01-20T14:48:54;5.30;71.40
10171;DHT22;5127;50.922;6.988;2023-01-20T14:51:22;5.20;71.40
10171;DHT22;5127;50.922;6.988;2023-01-20T14:54:28;5.20;71.50
10171;DHT22;5127;50.922;6.988;2023-01-20T14:56:57;5.20;71.10
10171;DHT22;5127;50.922;6.988;2023-01-20T14:59:25;5.20;71.70
10171;DHT22;5127;50.922;6.988;2023-01-20T15:01:56;5.20;71.70
10171;DHT22;5127;50.922;6.988;2023-01-20T15:04:34;5.10;71.60
10171;DHT22;5127;50.922;6.988;2023-01-20T15:07:03;5.10;71.50
10171;DHT22;5127;50.922;6.988;2023-01-20T15:09:33;5.10;71.60
10171;DHT22;5127;50.922;6.988;2023-01-20T15:12:30;5.10;71.80
10171;DHT22;5127;50.922;6.988;2023-01-20T15:15:19;5.10;71.40
10171;DHT22;5127;50.922;6.988;2023-01-20T15:18:14;5.10;71.40
10171;DHT22;5127;50.922;6.988;2023-01-20T15:20:45;5.00;71.30
10171;DHT22;5127;50.922;6.988;2023-01-20T15:23:17;5.00;71.90
10171;DHT22;5127;50.922;6.988;2023-01-20T15:25:46;5.00;72.00
10171;DHT22;5127;50.922;6.988;2023-01-20T15:28:21;5.00;72.00
10171;DHT22;5127;50.922;6.988;2023-01-20T15:30:51;5.00;71.90
10171;DHT22;5127;50.922;6.988;2023-01-20T15:33:21;5.00;72.10
10171;DHT22;5127;50.922;6.988;2023-01-20T15:35:53;5.00;72.10
10171;DHT22;5127;50.922;6.988;2023-01-20T15:38:21;5.00;72.00
10171;DHT22;5127;50.922;6.988;2023-01-20T15:40:49;5.00;72.20
10171;DHT22;5127;50.922;6.988;2023-01-20T15:43:17;5.00;72.20
10171;DHT22;5127;50.922;6.988;2023-01-20T15:45:45;4.90;72.20
10171;DHT22;5127;50.922;6.988;2023-01-20T15:48:15;5.00;72.40
10171;DHT22;5127;50.922;6.988;2023-01-20T15:50:44;4.90;72.30
10171;DHT22;5127;50.922;6.988;2023-01-20T15:53:13;4.90;72.30
10171;DHT22;5127;50.922;6.988;2023-01-20T15:55:44;4.90;72.40
10171;DHT22;5127;50.922;6.988;2023-01-20T15:58:22;4.90;72.30
10171;DHT22;5127;50.922;6.988;2023-01-20T16:00:51;4.90;72.20
10171;DHT22;5127;50.922;6.988;2023-01-20T16:03:19;5.00;72.50
10171;DHT22;5127;50.922;6.988;2023-01-20T16:05:49;4.90;73.10
10171;DHT22;5127;50.922;6.988;2023-01-20T16:08:20;5.00;72.50
10171;DHT22;5127;50.922;6.988;2023-01-20T16:10:49;4.90;72.30
10171;DHT22;5127;50.922;6.988;2023-01-20T16:13:17;4.90;72.50
10171;DHT22;5127;50.922;6.988;2023-01-20T16:15:44;4.90;72.50
10171;DHT22;5127;50.922;6.988;2023-01-20T16:18:16;4.80;72.40
10171;DHT22;5127;50.922;6.988;2023-01-20T16:20:45;4.80;72.30
10171;DHT22;5127;50.922;6.988;2023-01-20T16:23:16;4.80;72.40
10171;DHT22;5127;50.922;6.988;2023-01-20T16:25:44;4.80;72.40
10171;DHT22;5127;50.922;6.988;2023-01-20T16:28:14;4.80;72.40
10171;DHT22;5127;50.922;6.988;2023-01-20T16:30:44;4.80;72.40
10171;DHT22;5127;50.922;6.988;2023-01-20T16:33:17;4.90;72.60
10171;DHT22;5127;50.922;6.988;2023-01-20T16:35:45;4.80;72.40